createdAt,value
2022-11-14T06:16:03.357Z,1009.81
2022-11-14T06:26:03.418Z,1009.63
2022-11-14T06:36:03.298Z,1009.73
2022-11-14T06:46:03.307Z,1009.53
2022-11-14T06:56:03.310Z,1009.69
2022-11-14T07:06:03.297Z,1009.66
2022-11-14T07:16:03.382Z,1009.74
2022-11-14T07:26:03.477Z,1009.74
2022-11-14T07:36:03.296Z,1009.77
2022-11-14T07:46:03.452Z,1009.51
2022-11-14T07:56:03.293Z,1009.59
2022-11-14T08:06:03.526Z,1009.72
2022-11-14T08:16:05.667Z,1009.65
2022-11-14T08:26:03.506Z,1009.44
2022-11-14T08:36:03.635Z,1009.38
2022-11-14T08:46:03.485Z,1009.60
2022-11-14T08:56:03.373Z,1009.58
2022-11-14T09:06:03.458Z,1009.42
2022-11-14T09:16:03.474Z,1009.40
2022-11-14T09:26:03.601Z,1009.58
2022-11-14T09:36:03.624Z,1009.55
2022-11-14T09:46:03.363Z,1009.38
2022-11-14T09:56:03.593Z,1009.05
2022-11-14T10:06:03.598Z,1008.87
2022-11-14T10:16:03.583Z,1008.64
2022-11-14T10:26:03.452Z,1008.77
2022-11-14T10:36:03.521Z,1008.96
2022-11-14T10:46:03.564Z,1009.05
2022-11-14T10:56:04.985Z,1008.95
2022-11-14T11:06:03.527Z,1008.94
2022-11-14T11:16:03.421Z,1009.01
2022-11-14T11:26:03.544Z,1008.96
2022-11-14T11:36:03.615Z,1009.06
2022-11-14T11:46:03.632Z,1008.83
2022-11-14T11:56:03.613Z,1008.82
2022-11-14T12:06:03.570Z,1008.84
2022-11-14T12:16:03.826Z,1008.91
2022-11-14T12:26:03.713Z,1008.93
2022-11-14T12:36:03.575Z,1008.66
2022-11-14T12:46:03.743Z,1008.50
2022-11-14T12:56:03.570Z,1008.47
2022-11-14T13:06:03.658Z,1008.32
2022-11-14T13:16:03.586Z,1008.16
2022-11-14T13:26:03.589Z,1008.16
2022-11-14T13:36:05.490Z,1008.08
2022-11-14T13:46:03.610Z,1007.92
2022-11-14T13:56:03.591Z,1008.00
2022-11-14T14:06:05.845Z,1007.88
2022-11-14T14:16:03.677Z,1007.77
2022-11-14T14:26:03.552Z,1007.69
2022-11-14T14:36:03.614Z,1007.50
2022-11-14T14:46:03.589Z,1007.39
2022-11-14T14:56:03.657Z,1007.34
2022-11-14T15:06:03.732Z,1007.23
2022-11-14T15:16:03.556Z,1007.18
2022-11-14T15:26:03.606Z,1007.03
2022-11-14T15:36:03.613Z,1006.95
2022-11-14T15:46:03.646Z,1006.82
2022-11-14T15:56:03.613Z,1006.75
2022-11-14T16:06:03.732Z,1006.70
2022-11-14T16:16:03.539Z,1006.57
2022-11-14T16:26:03.705Z,1006.52
2022-11-14T16:36:03.797Z,1006.58
2022-11-14T16:46:03.740Z,1006.63
2022-11-14T16:56:03.824Z,1006.67
2022-11-14T17:06:03.780Z,1006.42
2022-11-14T17:16:03.899Z,1006.58
2022-11-14T17:26:03.686Z,1006.61
2022-11-14T17:36:03.856Z,1006.49
2022-11-14T17:46:03.730Z,1006.33
2022-11-14T17:56:03.775Z,1006.10
2022-11-14T18:06:03.773Z,1006.17
2022-11-14T18:16:03.835Z,1006.04
2022-11-14T18:26:03.927Z,1006.07
2022-11-14T18:36:03.916Z,1006.01
2022-11-14T18:46:04.108Z,1005.91
2022-11-14T18:56:04.373Z,1006.01
2022-11-14T19:06:04.390Z,1005.89
2022-11-14T19:16:04.501Z,1005.61
